Aureola, Iowa
Current Conditions -  °F | °C
As of 11:15 PM on Tuesday 25 Nov 2014 (Local Time) from KCCY Reporting Station
Broken Clouds Broken Clouds  
Wind Chill: -13°   Ceiling: 13000
Heat Index: -6°   Visibility: 10mi
Dew Point: -9°   Wind: 14mph
Humidity: 80%   Direction: 140°SE
Pressure: 30.04"   Gusts: NA
Location:  42.9618°N, 92.9184°W
Report Text: KCCY 260515Z AUTO 14012KT 10SM BKN130 BKN150 M06/M09 A3004 RMK AO2
Loading
Personal Weather Stations






























Interactive Weather Map New forecast layout! Learn more

10-Day Weather Forecast

Advertisements
Track Severe Weather on mobile